sensor_id;sensor_type;location;lat;lon;timestamp;P1;durP1;ratioP1;P2;durP2;ratioP2
9789;SDS011;4934;50.852;8.098;2022-10-16T00:02:12;9.40;;;4.05;;
9789;SDS011;4934;50.852;8.098;2022-10-16T00:04:38;9.63;;;4.30;;
9789;SDS011;4934;50.852;8.098;2022-10-16T00:07:03;11.20;;;3.65;;
9789;SDS011;4934;50.852;8.098;2022-10-16T00:09:29;6.70;;;3.75;;
9789;SDS011;4934;50.852;8.098;2022-10-16T00:11:54;6.07;;;3.75;;
9789;SDS011;4934;50.852;8.098;2022-10-16T00:14:20;7.85;;;2.90;;
9789;SDS011;4934;50.852;8.098;2022-10-16T00:16:45;13.00;;;3.40;;
9789;SDS011;4934;50.852;8.098;2022-10-16T00:19:11;8.00;;;3.58;;
9789;SDS011;4934;50.852;8.098;2022-10-16T00:21:37;8.80;;;3.75;;
9789;SDS011;4934;50.852;8.098;2022-10-16T00:24:04;8.85;;;3.47;;
9789;SDS011;4934;50.852;8.098;2022-10-16T00:26:33;4.22;;;3.13;;
9789;SDS011;4934;50.852;8.098;2022-10-16T00:29:00;7.80;;;3.25;;
9789;SDS011;4934;50.852;8.098;2022-10-16T00:31:27;7.47;;;2.38;;
9789;SDS011;4934;50.852;8.098;2022-10-16T00:33:53;5.90;;;2.78;;
9789;SDS011;4934;50.852;8.098;2022-10-16T00:36:20;6.53;;;3.20;;
9789;SDS011;4934;50.852;8.098;2022-10-16T00:38:47;5.45;;;3.08;;
9789;SDS011;4934;50.852;8.098;2022-10-16T00:41:17;6.68;;;2.30;;
9789;SDS011;4934;50.852;8.098;2022-10-16T00:43:44;6.28;;;2.35;;
9789;SDS011;4934;50.852;8.098;2022-10-16T00:48:46;3.25;;;1.90;;
9789;SDS011;4934;50.852;8.098;2022-10-16T00:51:17;1.75;;;1.50;;
9789;SDS011;4934;50.852;8.098;2022-10-16T00:53:46;14.30;;;3.55;;
9789;SDS011;4934;50.852;8.098;2022-10-16T00:56:13;8.73;;;2.50;;
9789;SDS011;4934;50.852;8.098;2022-10-16T00:58:38;7.43;;;2.97;;
9789;SDS011;4934;50.852;8.098;2022-10-16T01:01:04;6.78;;;3.28;;
9789;SDS011;4934;50.852;8.098;2022-10-16T01:03:34;7.35;;;3.15;;
9789;SDS011;4934;50.852;8.098;2022-10-16T01:11:30;5.97;;;2.75;;
9789;SDS011;4934;50.852;8.098;2022-10-16T01:14:27;12.00;;;2.75;;
9789;SDS011;4934;50.852;8.098;2022-10-16T01:17:11;3.00;;;2.00;;
9789;SDS011;4934;50.852;8.098;2022-10-16T01:20:04;6.07;;;2.25;;
9789;SDS011;4934;50.852;8.098;2022-10-16T01:23:04;2.88;;;1.92;;
9789;SDS011;4934;50.852;8.098;2022-10-16T01:25:46;6.88;;;1.60;;
9789;SDS011;4934;50.852;8.098;2022-10-16T01:28:45;2.35;;;1.50;;
9789;SDS011;4934;50.852;8.098;2022-10-16T01:31:17;8.55;;;2.63;;
9789;SDS011;4934;50.852;8.098;2022-10-16T01:33:48;13.20;;;2.85;;
9789;SDS011;4934;50.852;8.098;2022-10-16T01:36:21;5.00;;;2.83;;
9789;SDS011;4934;50.852;8.098;2022-10-16T01:38:50;5.03;;;2.47;;
9789;SDS011;4934;50.852;8.098;2022-10-16T01:41:21;6.07;;;2.20;;
9789;SDS011;4934;50.852;8.098;2022-10-16T01:43:54;8.88;;;2.88;;
9789;SDS011;4934;50.852;8.098;2022-10-16T01:46:33;5.60;;;2.40;;
9789;SDS011;4934;50.852;8.098;2022-10-16T01:49:00;8.48;;;2.15;;
9789;SDS011;4934;50.852;8.098;2022-10-16T01:51:28;11.07;;;3.05;;
9789;SDS011;4934;50.852;8.098;2022-10-16T01:53:55;5.35;;;2.42;;
9789;SDS011;4934;50.852;8.098;2022-10-16T01:56:24;7.43;;;2.13;;
9789;SDS011;4934;50.852;8.098;2022-10-16T01:59:13;3.42;;;2.35;;
9789;SDS011;4934;50.852;8.098;2022-10-16T02:01:39;2.15;;;1.95;;
9789;SDS011;4934;50.852;8.098;2022-10-16T02:04:13;7.30;;;2.72;;
9789;SDS011;4934;50.852;8.098;2022-10-16T02:06:46;3.92;;;2.60;;
9789;SDS011;4934;50.852;8.098;2022-10-16T02:09:11;12.52;;;3.05;;
9789;SDS011;4934;50.852;8.098;2022-10-16T02:11:37;4.63;;;2.10;;
9789;SDS011;4934;50.852;8.098;2022-10-16T02:14:04;5.80;;;2.30;;
9789;SDS011;4934;50.852;8.098;2022-10-16T02:16:37;3.53;;;2.40;;
9789;SDS011;4934;50.852;8.098;2022-10-16T02:19:04;4.22;;;2.20;;
9789;SDS011;4934;50.852;8.098;2022-10-16T02:21:38;10.88;;;2.30;;
9789;SDS011;4934;50.852;8.098;2022-10-16T02:24:16;3.83;;;2.13;;
9789;SDS011;4934;50.852;8.098;2022-10-16T02:30:07;3.47;;;2.58;;
9789;SDS011;4934;50.852;8.098;2022-10-16T02:32:33;4.80;;;2.30;;
9789;SDS011;4934;50.852;8.098;2022-10-16T02:35:01;2.97;;;2.40;;
9789;SDS011;4934;50.852;8.098;2022-10-16T02:37:28;3.22;;;2.30;;
9789;SDS011;4934;50.852;8.098;2022-10-16T02:39:56;5.55;;;2.13;;
9789;SDS011;4934;50.852;8.098;2022-10-16T02:42:27;7.50;;;2.53;;
9789;SDS011;4934;50.852;8.098;2022-10-16T02:44:54;5.32;;;2.38;;
9789;SDS011;4934;50.852;8.098;2022-10-16T02:47:20;2.90;;;2.28;;
9789;SDS011;4934;50.852;8.098;2022-10-16T02:49:45;3.70;;;2.00;;
9789;SDS011;4934;50.852;8.098;2022-10-16T02:52:11;2.80;;;2.08;;
9789;SDS011;4934;50.852;8.098;2022-10-16T02:54:37;3.55;;;2.05;;
9789;SDS011;4934;50.852;8.098;2022-10-16T02:57:02;4.95;;;2.15;;
9789;SDS011;4934;50.852;8.098;2022-10-16T02:59:28;6.57;;;2.30;;
9789;SDS011;4934;50.852;8.098;2022-10-16T03:01:53;3.78;;;2.15;;
9789;SDS011;4934;50.852;8.098;2022-10-16T03:04:19;5.57;;;2.20;;
9789;SDS011;4934;50.852;8.098;2022-10-16T03:06:45;3.00;;;2.10;;
9789;SDS011;4934;50.852;8.098;2022-10-16T03:09:10;3.72;;;2.08;;
9789;SDS011;4934;50.852;8.098;2022-10-16T03:11:36;4.72;;;2.28;;
9789;SDS011;4934;50.852;8.098;2022-10-16T03:14:01;5.47;;;2.30;;
9789;SDS011;4934;50.852;8.098;2022-10-16T03:16:27;12.90;;;2.97;;
9789;SDS011;4934;50.852;8.098;2022-10-16T03:18:52;7.72;;;3.15;;
9789;SDS011;4934;50.852;8.098;2022-10-16T03:21:18;3.63;;;2.80;;
9789;SDS011;4934;50.852;8.098;2022-10-16T03:23:44;6.80;;;3.10;;
9789;SDS011;4934;50.852;8.098;2022-10-16T03:26:09;7.03;;;2.72;;
9789;SDS011;4934;50.852;8.098;2022-10-16T03:28:35;7.22;;;3.10;;
9789;SDS011;4934;50.852;8.098;2022-10-16T03:31:00;5.32;;;2.45;;
9789;SDS011;4934;50.852;8.098;2022-10-16T03:33:26;5.88;;;2.28;;
9789;SDS011;4934;50.852;8.098;2022-10-16T03:35:52;3.17;;;2.45;;
9789;SDS011;4934;50.852;8.098;2022-10-16T03:38:19;3.53;;;2.33;;
9789;SDS011;4934;50.852;8.098;2022-10-16T03:40:45;7.45;;;2.78;;
9789;SDS011;4934;50.852;8.098;2022-10-16T03:43:11;6.05;;;2.38;;
9789;SDS011;4934;50.852;8.098;2022-10-16T03:45:36;4.32;;;2.30;;
9789;SDS011;4934;50.852;8.098;2022-10-16T03:48:02;4.72;;;2.30;;
9789;SDS011;4934;50.852;8.098;2022-10-16T03:50:28;8.52;;;2.85;;
9789;SDS011;4934;50.852;8.098;2022-10-16T03:52:54;6.18;;;2.67;;
9789;SDS011;4934;50.852;8.098;2022-10-16T03:55:20;6.32;;;2.47;;
9789;SDS011;4934;50.852;8.098;2022-10-16T03:57:46;7.80;;;2.72;;
9789;SDS011;4934;50.852;8.098;2022-10-16T04:00:11;4.68;;;2.92;;
9789;SDS011;4934;50.852;8.098;2022-10-16T04:02:38;4.82;;;3.60;;
9789;SDS011;4934;50.852;8.098;2022-10-16T04:05:04;4.32;;;3.30;;
9789;SDS011;4934;50.852;8.098;2022-10-16T04:07:30;4.75;;;3.00;;
9789;SDS011;4934;50.852;8.098;2022-10-16T04:09:55;8.55;;;3.45;;
9789;SDS011;4934;50.852;8.098;2022-10-16T04:12:23;6.05;;;3.28;;
9789;SDS011;4934;50.852;8.098;2022-10-16T04:14:49;8.43;;;3.15;;
9789;SDS011;4934;50.852;8.098;2022-10-16T04:17:15;5.47;;;3.03;;
9789;SDS011;4934;50.852;8.098;2022-10-16T04:19:40;6.00;;;2.50;;
9789;SDS011;4934;50.852;8.098;2022-10-16T04:22:06;6.55;;;2.45;;
9789;SDS011;4934;50.852;8.098;2022-10-16T04:24:31;4.43;;;2.13;;
9789;SDS011;4934;50.852;8.098;2022-10-16T04:26:57;8.13;;;2.20;;
9789;SDS011;4934;50.852;8.098;2022-10-16T04:29:23;5.88;;;2.28;;
9789;SDS011;4934;50.852;8.098;2022-10-16T04:31:48;5.13;;;2.95;;
9789;SDS011;4934;50.852;8.098;2022-10-16T04:34:14;5.88;;;3.00;;
9789;SDS011;4934;50.852;8.098;2022-10-16T04:36:40;7.63;;;3.05;;
9789;SDS011;4934;50.852;8.098;2022-10-16T04:39:05;4.07;;;2.83;;
9789;SDS011;4934;50.852;8.098;2022-10-16T04:41:31;5.40;;;3.25;;
9789;SDS011;4934;50.852;8.098;2022-10-16T04:43:56;7.70;;;3.30;;
9789;SDS011;4934;50.852;8.098;2022-10-16T04:46:22;6.93;;;3.08;;
9789;SDS011;4934;50.852;8.098;2022-10-16T04:48:47;5.68;;;2.80;;
9789;SDS011;4934;50.852;8.098;2022-10-16T04:51:13;4.90;;;2.55;;
9789;SDS011;4934;50.852;8.098;2022-10-16T04:53:39;6.25;;;3.08;;
9789;SDS011;4934;50.852;8.098;2022-10-16T04:56:04;4.32;;;2.83;;
9789;SDS011;4934;50.852;8.098;2022-10-16T04:58:30;7.72;;;2.80;;
9789;SDS011;4934;50.852;8.098;2022-10-16T05:00:56;5.03;;;2.47;;
9789;SDS011;4934;50.852;8.098;2022-10-16T05:03:21;6.32;;;2.63;;
9789;SDS011;4934;50.852;8.098;2022-10-16T05:05:47;3.25;;;2.25;;
9789;SDS011;4934;50.852;8.098;2022-10-16T05:08:13;3.55;;;1.90;;
9789;SDS011;4934;50.852;8.098;2022-10-16T05:10:40;3.22;;;2.60;;
9789;SDS011;4934;50.852;8.098;2022-10-16T05:13:07;4.30;;;2.63;;
9789;SDS011;4934;50.852;8.098;2022-10-16T05:15:33;2.65;;;2.33;;
9789;SDS011;4934;50.852;8.098;2022-10-16T05:17:59;2.78;;;2.50;;
9789;SDS011;4934;50.852;8.098;2022-10-16T05:20:24;3.58;;;2.30;;
9789;SDS011;4934;50.852;8.098;2022-10-16T05:22:50;2.63;;;2.30;;
9789;SDS011;4934;50.852;8.098;2022-10-16T05:25:16;4.82;;;2.40;;
9789;SDS011;4934;50.852;8.098;2022-10-16T05:27:42;4.57;;;2.60;;
9789;SDS011;4934;50.852;8.098;2022-10-16T05:30:07;2.80;;;2.35;;
9789;SDS011;4934;50.852;8.098;2022-10-16T05:32:33;2.25;;;2.05;;
9789;SDS011;4934;50.852;8.098;2022-10-16T05:34:59;2.00;;;1.80;;
9789;SDS011;4934;50.852;8.098;2022-10-16T05:37:25;2.53;;;2.33;;
9789;SDS011;4934;50.852;8.098;2022-10-16T05:39:52;3.42;;;1.98;;
9789;SDS011;4934;50.852;8.098;2022-10-16T05:42:17;2.17;;;1.95;;
9789;SDS011;4934;50.852;8.098;2022-10-16T05:44:43;4.00;;;2.15;;
9789;SDS011;4934;50.852;8.098;2022-10-16T05:47:09;2.08;;;1.88;;
9789;SDS011;4934;50.852;8.098;2022-10-16T05:49:35;5.00;;;2.15;;
9789;SDS011;4934;50.852;8.098;2022-10-16T05:52:01;5.45;;;2.15;;
9789;SDS011;4934;50.852;8.098;2022-10-16T05:54:27;5.00;;;2.50;;
9789;SDS011;4934;50.852;8.098;2022-10-16T05:56:52;4.00;;;2.60;;
9789;SDS011;4934;50.852;8.098;2022-10-16T05:59:18;5.25;;;2.25;;
9789;SDS011;4934;50.852;8.098;2022-10-16T06:01:43;5.03;;;2.05;;
9789;SDS011;4934;50.852;8.098;2022-10-16T06:04:09;3.63;;;2.35;;
9789;SDS011;4934;50.852;8.098;2022-10-16T06:06:35;6.00;;;2.45;;
9789;SDS011;4934;50.852;8.098;2022-10-16T06:09:01;3.80;;;2.95;;
9789;SDS011;4934;50.852;8.098;2022-10-16T06:11:29;4.45;;;2.58;;
9789;SDS011;4934;50.852;8.098;2022-10-16T06:13:57;10.52;;;2.80;;
9789;SDS011;4934;50.852;8.098;2022-10-16T06:16:24;4.50;;;2.72;;
9789;SDS011;4934;50.852;8.098;2022-10-16T06:18:51;6.53;;;2.53;;
9789;SDS011;4934;50.852;8.098;2022-10-16T06:21:19;5.35;;;2.35;;
9789;SDS011;4934;50.852;8.098;2022-10-16T06:23:46;3.58;;;2.38;;
9789;SDS011;4934;50.852;8.098;2022-10-16T06:26:13;5.45;;;2.20;;
9789;SDS011;4934;50.852;8.098;2022-10-16T06:28:41;8.85;;;2.25;;
9789;SDS011;4934;50.852;8.098;2022-10-16T06:31:08;3.00;;;2.30;;
9789;SDS011;4934;50.852;8.098;2022-10-16T06:33:35;8.25;;;2.58;;
9789;SDS011;4934;50.852;8.098;2022-10-16T06:36:19;3.67;;;2.15;;
9789;SDS011;4934;50.852;8.098;2022-10-16T06:38:46;4.55;;;2.47;;
9789;SDS011;4934;50.852;8.098;2022-10-16T06:41:12;4.60;;;2.80;;
9789;SDS011;4934;50.852;8.098;2022-10-16T06:43:45;2.72;;;1.70;;
9789;SDS011;4934;50.852;8.098;2022-10-16T06:46:12;2.20;;;1.98;;
9789;SDS011;4934;50.852;8.098;2022-10-16T06:48:39;3.03;;;1.67;;
9789;SDS011;4934;50.852;8.098;2022-10-16T06:51:06;3.63;;;2.97;;
9789;SDS011;4934;50.852;8.098;2022-10-16T06:53:33;2.10;;;1.70;;
9789;SDS011;4934;50.852;8.098;2022-10-16T06:56:07;3.25;;;1.67;;
9789;SDS011;4934;50.852;8.098;2022-10-16T06:58:40;2.88;;;1.80;;
9789;SDS011;4934;50.852;8.098;2022-10-16T07:01:07;1.63;;;1.52;;
9789;SDS011;4934;50.852;8.098;2022-10-16T07:03:33;4.90;;;1.60;;
9789;SDS011;4934;50.852;8.098;2022-10-16T07:06:01;3.15;;;1.70;;
9789;SDS011;4934;50.852;8.098;2022-10-16T07:08:32;2.63;;;1.40;;
9789;SDS011;4934;50.852;8.098;2022-10-16T07:11:03;4.10;;;1.42;;
9789;SDS011;4934;50.852;8.098;2022-10-16T07:13:34;1.85;;;1.42;;
9789;SDS011;4934;50.852;8.098;2022-10-16T07:16:19;24.30;;;3.67;;
9789;SDS011;4934;50.852;8.098;2022-10-16T07:18:47;2.78;;;0.98;;
9789;SDS011;4934;50.852;8.098;2022-10-16T07:21:23;6.70;;;1.50;;
9789;SDS011;4934;50.852;8.098;2022-10-16T07:23:54;2.88;;;1.10;;
9789;SDS011;4934;50.852;8.098;2022-10-16T07:26:21;3.05;;;1.17;;
9789;SDS011;4934;50.852;8.098;2022-10-16T07:28:48;1.55;;;1.33;;
9789;SDS011;4934;50.852;8.098;2022-10-16T07:31:17;1.20;;;1.10;;
9789;SDS011;4934;50.852;8.098;2022-10-16T07:33:44;3.95;;;1.15;;
9789;SDS011;4934;50.852;8.098;2022-10-16T07:36:12;2.15;;;1.10;;
9789;SDS011;4934;50.852;8.098;2022-10-16T07:38:39;3.67;;;1.58;;
9789;SDS011;4934;50.852;8.098;2022-10-16T07:41:09;5.90;;;1.88;;
9789;SDS011;4934;50.852;8.098;2022-10-16T07:43:37;2.35;;;1.05;;
9789;SDS011;4934;50.852;8.098;2022-10-16T07:46:03;1.95;;;1.60;;
9789;SDS011;4934;50.852;8.098;2022-10-16T07:48:33;4.53;;;1.30;;
9789;SDS011;4934;50.852;8.098;2022-10-16T07:51:00;8.05;;;1.20;;
9789;SDS011;4934;50.852;8.098;2022-10-16T07:53:27;2.93;;;1.20;;
9789;SDS011;4934;50.852;8.098;2022-10-16T07:56:00;3.33;;;1.35;;
9789;SDS011;4934;50.852;8.098;2022-10-16T07:58:27;6.15;;;1.63;;
9789;SDS011;4934;50.852;8.098;2022-10-16T08:00:54;2.72;;;1.60;;
9789;SDS011;4934;50.852;8.098;2022-10-16T08:03:20;4.47;;;1.80;;
9789;SDS011;4934;50.852;8.098;2022-10-16T08:05:45;1.38;;;1.25;;
9789;SDS011;4934;50.852;8.098;2022-10-16T08:08:15;3.30;;;1.00;;
9789;SDS011;4934;50.852;8.098;2022-10-16T08:10:42;1.15;;;1.05;;
9789;SDS011;4934;50.852;8.098;2022-10-16T08:13:07;2.17;;;1.00;;
9789;SDS011;4934;50.852;8.098;2022-10-16T08:15:33;2.90;;;1.20;;
9789;SDS011;4934;50.852;8.098;2022-10-16T08:17:59;2.65;;;0.80;;
9789;SDS011;4934;50.852;8.098;2022-10-16T08:20:27;5.60;;;0.95;;
9789;SDS011;4934;50.852;8.098;2022-10-16T08:22:53;1.30;;;1.00;;
9789;SDS011;4934;50.852;8.098;2022-10-16T08:25:20;1.33;;;1.13;;
9789;SDS011;4934;50.852;8.098;2022-10-16T08:27:46;4.72;;;1.17;;
9789;SDS011;4934;50.852;8.098;2022-10-16T08:30:12;2.30;;;0.88;;
9789;SDS011;4934;50.852;8.098;2022-10-16T08:32:38;3.95;;;1.05;;
9789;SDS011;4934;50.852;8.098;2022-10-16T08:35:04;4.57;;;1.13;;
9789;SDS011;4934;50.852;8.098;2022-10-16T08:37:30;2.72;;;0.85;;
9789;SDS011;4934;50.852;8.098;2022-10-16T08:39:57;2.95;;;0.95;;
9789;SDS011;4934;50.852;8.098;2022-10-16T08:42:47;4.82;;;1.13;;
9789;SDS011;4934;50.852;8.098;2022-10-16T08:50:57;3.50;;;0.93;;
9789;SDS011;4934;50.852;8.098;2022-10-16T08:53:28;1.40;;;0.63;;
9789;SDS011;4934;50.852;8.098;2022-10-16T08:55:58;3.78;;;0.98;;
9789;SDS011;4934;50.852;8.098;2022-10-16T08:58:28;1.08;;;0.70;;
9789;SDS011;4934;50.852;8.098;2022-10-16T09:00:56;2.33;;;0.80;;
9789;SDS011;4934;50.852;8.098;2022-10-16T09:11:46;2.05;;;0.60;;
9789;SDS011;4934;50.852;8.098;2022-10-16T09:17:19;1.80;;;0.80;;
9789;SDS011;4934;50.852;8.098;2022-10-16T09:20:04;4.47;;;1.05;;
9789;SDS011;4934;50.852;8.098;2022-10-16T09:22:46;1.50;;;0.80;;
9789;SDS011;4934;50.852;8.098;2022-10-16T09:25:20;1.25;;;0.63;;
9789;SDS011;4934;50.852;8.098;2022-10-16T09:27:48;1.45;;;1.00;;
9789;SDS011;4934;50.852;8.098;2022-10-16T09:30:19;1.00;;;0.68;;
9789;SDS011;4934;50.852;8.098;2022-10-16T09:32:47;1.88;;;0.70;;
9789;SDS011;4934;50.852;8.098;2022-10-16T09:35:17;2.92;;;0.70;;
9789;SDS011;4934;50.852;8.098;2022-10-16T09:37:47;6.00;;;0.85;;
9789;SDS011;4934;50.852;8.098;2022-10-16T09:40:28;2.80;;;0.60;;
9789;SDS011;4934;50.852;8.098;2022-10-16T09:45:53;3.35;;;0.65;;
9789;SDS011;4934;50.852;8.098;2022-10-16T09:48:23;0.80;;;0.70;;
9789;SDS011;4934;50.852;8.098;2022-10-16T09:50:56;1.73;;;1.27;;
9789;SDS011;4934;50.852;8.098;2022-10-16T09:53:37;4.10;;;0.70;;
9789;SDS011;4934;50.852;8.098;2022-10-16T09:56:11;2.80;;;0.70;;
9789;SDS011;4934;50.852;8.098;2022-10-16T09:58:50;1.92;;;0.70;;
9789;SDS011;4934;50.852;8.098;2022-10-16T10:01:17;1.58;;;0.50;;
9789;SDS011;4934;50.852;8.098;2022-10-16T10:03:44;0.85;;;0.63;;
9789;SDS011;4934;50.852;8.098;2022-10-16T10:08:54;1.05;;;0.60;;
9789;SDS011;4934;50.852;8.098;2022-10-16T10:11:44;2.20;;;1.52;;
9789;SDS011;4934;50.852;8.098;2022-10-16T10:14:15;3.28;;;0.80;;
9789;SDS011;4934;50.852;8.098;2022-10-16T10:16:44;0.98;;;0.52;;
9789;SDS011;4934;50.852;8.098;2022-10-16T10:19:22;2.53;;;0.80;;
9789;SDS011;4934;50.852;8.098;2022-10-16T10:21:49;1.00;;;0.63;;
9789;SDS011;4934;50.852;8.098;2022-10-16T10:24:17;1.15;;;1.00;;
9789;SDS011;4934;50.852;8.098;2022-10-16T10:26:53;1.95;;;1.08;;
9789;SDS011;4934;50.852;8.098;2022-10-16T10:32:30;4.97;;;0.68;;
9789;SDS011;4934;50.852;8.098;2022-10-16T10:35:04;0.70;;;0.60;;
9789;SDS011;4934;50.852;8.098;2022-10-16T10:37:42;1.42;;;0.55;;
9789;SDS011;4934;50.852;8.098;2022-10-16T10:45:53;2.05;;;0.82;;
9789;SDS011;4934;50.852;8.098;2022-10-16T10:51:11;2.67;;;1.00;;
9789;SDS011;4934;50.852;8.098;2022-10-16T10:53:50;3.50;;;0.82;;
9789;SDS011;4934;50.852;8.098;2022-10-16T10:56:52;2.10;;;0.70;;
9789;SDS011;4934;50.852;8.098;2022-10-16T10:59:53;1.83;;;1.00;;
9789;SDS011;4934;50.852;8.098;2022-10-16T11:05:40;6.25;;;0.80;;
9789;SDS011;4934;50.852;8.098;2022-10-16T11:11:00;1.58;;;0.70;;
9789;SDS011;4934;50.852;8.098;2022-10-16T11:16:06;2.72;;;1.55;;
9789;SDS011;4934;50.852;8.098;2022-10-16T11:18:43;0.68;;;0.45;;
9789;SDS011;4934;50.852;8.098;2022-10-16T11:21:17;3.97;;;0.70;;
9789;SDS011;4934;50.852;8.098;2022-10-16T11:23:51;3.70;;;0.65;;
9789;SDS011;4934;50.852;8.098;2022-10-16T11:26:26;1.00;;;0.52;;
9789;SDS011;4934;50.852;8.098;2022-10-16T11:28:56;0.38;;;0.38;;
9789;SDS011;4934;50.852;8.098;2022-10-16T11:33:59;1.00;;;0.70;;
9789;SDS011;4934;50.852;8.098;2022-10-16T11:36:48;2.22;;;0.75;;
9789;SDS011;4934;50.852;8.098;2022-10-16T11:39:30;4.07;;;0.70;;
9789;SDS011;4934;50.852;8.098;2022-10-16T11:42:10;2.58;;;0.70;;
9789;SDS011;4934;50.852;8.098;2022-10-16T11:44:42;2.30;;;0.50;;
9789;SDS011;4934;50.852;8.098;2022-10-16T11:49:57;1.10;;;0.70;;
9789;SDS011;4934;50.852;8.098;2022-10-16T11:52:36;0.80;;;0.70;;
9789;SDS011;4934;50.852;8.098;2022-10-16T11:55:21;1.35;;;0.57;;
9789;SDS011;4934;50.852;8.098;2022-10-16T11:57:57;0.82;;;0.40;;
9789;SDS011;4934;50.852;8.098;2022-10-16T12:03:17;2.50;;;0.65;;
9789;SDS011;4934;50.852;8.098;2022-10-16T12:09:05;2.13;;;0.60;;
9789;SDS011;4934;50.852;8.098;2022-10-16T12:11:35;2.97;;;0.60;;
9789;SDS011;4934;50.852;8.098;2022-10-16T12:14:59;0.80;;;0.60;;
9789;SDS011;4934;50.852;8.098;2022-10-16T12:19:58;3.42;;;0.50;;
9789;SDS011;4934;50.852;8.098;2022-10-16T12:22:26;2.80;;;0.60;;
9789;SDS011;4934;50.852;8.098;2022-10-16T12:24:55;0.82;;;0.40;;
9789;SDS011;4934;50.852;8.098;2022-10-16T12:27:27;4.00;;;0.50;;
9789;SDS011;4934;50.852;8.098;2022-10-16T12:29:57;4.10;;;0.50;;
9789;SDS011;4934;50.852;8.098;2022-10-16T12:32:34;6.03;;;0.60;;
9789;SDS011;4934;50.852;8.098;2022-10-16T12:35:02;3.45;;;0.60;;
9789;SDS011;4934;50.852;8.098;2022-10-16T12:37:33;3.92;;;0.80;;
9789;SDS011;4934;50.852;8.098;2022-10-16T12:43:10;1.10;;;0.50;;
9789;SDS011;4934;50.852;8.098;2022-10-16T12:45:37;1.48;;;0.52;;
9789;SDS011;4934;50.852;8.098;2022-10-16T12:48:04;0.82;;;0.40;;
9789;SDS011;4934;50.852;8.098;2022-10-16T12:50:44;1.73;;;0.40;;
9789;SDS011;4934;50.852;8.098;2022-10-16T12:53:19;2.63;;;0.57;;
9789;SDS011;4934;50.852;8.098;2022-10-16T12:55:52;0.77;;;0.50;;
9789;SDS011;4934;50.852;8.098;2022-10-16T13:01:06;0.73;;;0.40;;
9789;SDS011;4934;50.852;8.098;2022-10-16T13:20:21;1.48;;;0.43;;
9789;SDS011;4934;50.852;8.098;2022-10-16T13:25:28;0.65;;;0.35;;
9789;SDS011;4934;50.852;8.098;2022-10-16T13:28:06;0.73;;;0.40;;
9789;SDS011;4934;50.852;8.098;2022-10-16T13:30:40;3.33;;;0.60;;
9789;SDS011;4934;50.852;8.098;2022-10-16T13:33:17;1.40;;;0.40;;
9789;SDS011;4934;50.852;8.098;2022-10-16T13:35:50;1.40;;;0.40;;
9789;SDS011;4934;50.852;8.098;2022-10-16T13:38:18;0.80;;;0.40;;
9789;SDS011;4934;50.852;8.098;2022-10-16T13:46:10;2.65;;;0.40;;
9789;SDS011;4934;50.852;8.098;2022-10-16T13:48:38;8.10;;;0.90;;
9789;SDS011;4934;50.852;8.098;2022-10-16T13:51:05;1.75;;;0.50;;
9789;SDS011;4934;50.852;8.098;2022-10-16T13:53:37;1.98;;;0.50;;
9789;SDS011;4934;50.852;8.098;2022-10-16T13:56:04;6.80;;;0.60;;
9789;SDS011;4934;50.852;8.098;2022-10-16T14:03:23;2.85;;;0.50;;
9789;SDS011;4934;50.852;8.098;2022-10-16T14:05:51;0.52;;;0.40;;
9789;SDS011;4934;50.852;8.098;2022-10-16T14:10:47;1.20;;;0.70;;
9789;SDS011;4934;50.852;8.098;2022-10-16T14:13:16;0.82;;;0.50;;
9789;SDS011;4934;50.852;8.098;2022-10-16T14:15:48;3.85;;;0.60;;
9789;SDS011;4934;50.852;8.098;2022-10-16T14:18:21;2.05;;;0.40;;
9789;SDS011;4934;50.852;8.098;2022-10-16T14:20:49;0.93;;;0.40;;
9789;SDS011;4934;50.852;8.098;2022-10-16T14:23:19;0.50;;;0.40;;
9789;SDS011;4934;50.852;8.098;2022-10-16T14:25:48;1.23;;;0.50;;
9789;SDS011;4934;50.852;8.098;2022-10-16T14:28:18;2.05;;;0.50;;
9789;SDS011;4934;50.852;8.098;2022-10-16T14:30:56;0.40;;;0.35;;
9789;SDS011;4934;50.852;8.098;2022-10-16T14:36:02;1.67;;;0.30;;
9789;SDS011;4934;50.852;8.098;2022-10-16T14:38:30;0.93;;;0.50;;
9789;SDS011;4934;50.852;8.098;2022-10-16T14:40:58;2.08;;;0.40;;
9789;SDS011;4934;50.852;8.098;2022-10-16T14:43:42;2.05;;;0.25;;
9789;SDS011;4934;50.852;8.098;2022-10-16T14:46:12;1.17;;;0.40;;
9789;SDS011;4934;50.852;8.098;2022-10-16T14:48:47;1.95;;;0.40;;
9789;SDS011;4934;50.852;8.098;2022-10-16T14:51:18;1.33;;;0.47;;
9789;SDS011;4934;50.852;8.098;2022-10-16T14:53:45;3.35;;;0.50;;
9789;SDS011;4934;50.852;8.098;2022-10-16T14:56:18;2.15;;;0.38;;
9789;SDS011;4934;50.852;8.098;2022-10-16T14:58:46;0.80;;;0.40;;
9789;SDS011;4934;50.852;8.098;2022-10-16T15:01:12;0.38;;;0.25;;
9789;SDS011;4934;50.852;8.098;2022-10-16T15:03:38;0.35;;;0.30;;
9789;SDS011;4934;50.852;8.098;2022-10-16T15:06:03;2.47;;;0.45;;
9789;SDS011;4934;50.852;8.098;2022-10-16T15:08:37;3.50;;;0.52;;
9789;SDS011;4934;50.852;8.098;2022-10-16T15:11:03;2.20;;;0.30;;
9789;SDS011;4934;50.852;8.098;2022-10-16T15:13:29;2.63;;;0.52;;
9789;SDS011;4934;50.852;8.098;2022-10-16T15:15:54;3.97;;;1.75;;
9789;SDS011;4934;50.852;8.098;2022-10-16T15:18:20;3.20;;;0.38;;
9789;SDS011;4934;50.852;8.098;2022-10-16T15:20:49;5.97;;;0.40;;
9789;SDS011;4934;50.852;8.098;2022-10-16T15:23:20;0.65;;;0.38;;
9789;SDS011;4934;50.852;8.098;2022-10-16T15:25:48;0.90;;;0.45;;
9789;SDS011;4934;50.852;8.098;2022-10-16T15:28:18;0.95;;;0.30;;
9789;SDS011;4934;50.852;8.098;2022-10-16T15:30:45;4.80;;;0.45;;
9789;SDS011;4934;50.852;8.098;2022-10-16T15:33:12;2.20;;;0.70;;
9789;SDS011;4934;50.852;8.098;2022-10-16T15:35:40;2.63;;;0.45;;
9789;SDS011;4934;50.852;8.098;2022-10-16T15:38:06;7.18;;;0.63;;
9789;SDS011;4934;50.852;8.098;2022-10-16T15:40:35;0.60;;;0.60;;
9789;SDS011;4934;50.852;8.098;2022-10-16T15:43:00;3.15;;;0.47;;
9789;SDS011;4934;50.852;8.098;2022-10-16T15:45:26;1.25;;;0.60;;
9789;SDS011;4934;50.852;8.098;2022-10-16T15:47:51;2.25;;;0.70;;
9789;SDS011;4934;50.852;8.098;2022-10-16T15:50:17;2.50;;;0.50;;
9789;SDS011;4934;50.852;8.098;2022-10-16T15:52:43;2.47;;;0.40;;
9789;SDS011;4934;50.852;8.098;2022-10-16T15:55:09;0.95;;;0.50;;
9789;SDS011;4934;50.852;8.098;2022-10-16T15:57:36;4.25;;;0.50;;
9789;SDS011;4934;50.852;8.098;2022-10-16T16:00:06;2.85;;;0.55;;
9789;SDS011;4934;50.852;8.098;2022-10-16T16:02:35;2.17;;;0.35;;
9789;SDS011;4934;50.852;8.098;2022-10-16T16:05:00;1.73;;;0.50;;
9789;SDS011;4934;50.852;8.098;2022-10-16T16:07:26;1.83;;;0.60;;
9789;SDS011;4934;50.852;8.098;2022-10-16T16:09:52;3.13;;;0.50;;
9789;SDS011;4934;50.852;8.098;2022-10-16T16:12:18;3.25;;;0.40;;
9789;SDS011;4934;50.852;8.098;2022-10-16T16:14:44;4.05;;;0.40;;
9789;SDS011;4934;50.852;8.098;2022-10-16T16:17:11;2.13;;;0.40;;
9789;SDS011;4934;50.852;8.098;2022-10-16T16:19:36;3.67;;;0.57;;
9789;SDS011;4934;50.852;8.098;2022-10-16T16:22:02;1.17;;;0.50;;
9789;SDS011;4934;50.852;8.098;2022-10-16T16:24:28;0.95;;;0.82;;
9789;SDS011;4934;50.852;8.098;2022-10-16T16:26:53;2.20;;;0.50;;
9789;SDS011;4934;50.852;8.098;2022-10-16T16:29:19;2.85;;;0.80;;
9789;SDS011;4934;50.852;8.098;2022-10-16T16:31:45;1.05;;;0.80;;
9789;SDS011;4934;50.852;8.098;2022-10-16T16:34:12;2.05;;;0.50;;
9789;SDS011;4934;50.852;8.098;2022-10-16T16:36:38;0.38;;;0.38;;
9789;SDS011;4934;50.852;8.098;2022-10-16T16:39:05;2.17;;;0.68;;
9789;SDS011;4934;50.852;8.098;2022-10-16T16:41:31;0.70;;;0.60;;
9789;SDS011;4934;50.852;8.098;2022-10-16T16:44:01;4.10;;;0.70;;
9789;SDS011;4934;50.852;8.098;2022-10-16T16:46:32;3.33;;;0.65;;
9789;SDS011;4934;50.852;8.098;2022-10-16T16:48:59;1.35;;;0.73;;
9789;SDS011;4934;50.852;8.098;2022-10-16T16:51:25;0.70;;;0.70;;
9789;SDS011;4934;50.852;8.098;2022-10-16T16:53:52;1.45;;;0.60;;
9789;SDS011;4934;50.852;8.098;2022-10-16T16:56:18;1.88;;;0.80;;
9789;SDS011;4934;50.852;8.098;2022-10-16T16:58:45;2.30;;;0.57;;
9789;SDS011;4934;50.852;8.098;2022-10-16T17:01:12;2.15;;;0.70;;
9789;SDS011;4934;50.852;8.098;2022-10-16T17:03:41;3.72;;;0.80;;
9789;SDS011;4934;50.852;8.098;2022-10-16T17:06:09;1.20;;;0.70;;
9789;SDS011;4934;50.852;8.098;2022-10-16T17:08:36;3.70;;;0.88;;
9789;SDS011;4934;50.852;8.098;2022-10-16T17:11:03;1.40;;;0.80;;
9789;SDS011;4934;50.852;8.098;2022-10-16T17:13:30;2.88;;;0.73;;
9789;SDS011;4934;50.852;8.098;2022-10-16T17:16:02;1.48;;;0.90;;
9789;SDS011;4934;50.852;8.098;2022-10-16T17:18:30;2.72;;;1.13;;